createdAt,value
2019-01-03T00:03:57.716Z,24.57
2019-01-03T00:09:13.307Z,23.70
2019-01-03T00:14:40.027Z,28.00
2019-01-03T00:20:07.096Z,23.73
2019-01-03T00:25:20.164Z,23.17
2019-01-03T00:30:49.501Z,26.70
2019-01-03T00:36:08.349Z,26.40
2019-01-03T00:41:15.397Z,20.50
2019-01-03T00:46:32.435Z,28.87
2019-01-03T00:51:45.185Z,27.53
2019-01-03T00:57:15.712Z,31.20
2019-01-03T01:02:30.790Z,26.47
2019-01-03T01:07:58.919Z,22.70
2019-01-03T01:13:11.674Z,20.70
2019-01-03T01:18:28.772Z,20.33
2019-01-03T01:23:41.868Z,28.47
2019-01-03T01:28:56.204Z,24.87
2019-01-03T01:34:09.000Z,22.10
2019-01-03T01:39:22.509Z,25.97
2019-01-03T01:44:39.888Z,19.17
2019-01-03T01:50:04.548Z,21.10
2019-01-03T01:55:18.881Z,21.33
2019-01-03T02:00:33.692Z,22.93
2019-01-03T02:05:53.815Z,22.67
2019-01-03T02:11:06.646Z,20.20
2019-01-03T02:16:39.294Z,23.63
2019-01-03T02:22:02.635Z,16.27
2019-01-03T02:27:19.769Z,22.53
2019-01-03T02:32:32.532Z,18.40
2019-01-03T02:37:49.926Z,19.73
2019-01-03T02:43:01.474Z,17.83
2019-01-03T02:48:28.031Z,22.00
2019-01-03T02:53:40.797Z,23.73
2019-01-03T02:58:57.943Z,18.07
2019-01-03T03:04:07.691Z,20.97
2019-01-03T03:09:20.696Z,22.37
2019-01-03T03:14:36.885Z,18.67
2019-01-03T03:19:50.056Z,22.30
2019-01-03T03:25:03.087Z,24.50
2019-01-03T03:30:23.858Z,20.87
2019-01-03T03:35:30.965Z,20.83
2019-01-03T03:40:43.730Z,23.97
2019-01-03T03:45:57.728Z,21.83
2019-01-03T03:51:26.999Z,22.90
2019-01-03T03:56:49.914Z,23.80
2019-01-03T04:02:04.230Z,16.00
2019-01-03T04:07:18.640Z,17.17
2019-01-03T04:12:23.770Z,22.13
2019-01-03T04:17:32.296Z,16.37
2019-01-03T04:22:42.792Z,21.03
2019-01-03T04:27:50.547Z,20.87
2019-01-03T04:33:03.555Z,18.33
2019-01-03T04:38:23.962Z,18.77
2019-01-03T04:43:35.499Z,20.27
2019-01-03T04:48:49.843Z,18.93
2019-01-03T04:54:07.775Z,14.23
2019-01-03T04:59:22.149Z,23.63
2019-01-03T05:04:37.015Z,22.43
2019-01-03T05:10:06.465Z,24.83
2019-01-03T05:15:22.863Z,16.57
2019-01-03T05:20:35.866Z,21.40
2019-01-03T05:25:48.847Z,18.43
2019-01-03T05:30:59.293Z,25.90
2019-01-03T05:36:12.062Z,25.33
2019-01-03T05:41:32.416Z,24.83
2019-01-03T05:46:58.574Z,18.37
2019-01-03T05:52:12.889Z,19.63
2019-01-03T05:57:29.248Z,24.53
2019-01-03T06:02:43.578Z,22.23
2019-01-03T06:07:56.314Z,22.67
2019-01-03T06:13:21.594Z,17.03
2019-01-03T06:18:34.327Z,19.93
2019-01-03T06:23:54.679Z,20.00
2019-01-03T06:29:17.945Z,20.13
2019-01-03T06:34:44.285Z,19.83
2019-01-03T06:40:10.736Z,28.50
2019-01-03T06:45:23.700Z,21.23
2019-01-03T06:50:41.035Z,15.00
2019-01-03T06:55:58.128Z,18.40
2019-01-03T07:01:15.382Z,18.87
2019-01-03T07:06:29.714Z,19.50
2019-01-03T07:11:42.485Z,20.57
2019-01-03T07:17:00.260Z,21.63
2019-01-03T07:22:20.533Z,22.10
2019-01-03T07:27:46.628Z,15.97
2019-01-03T07:32:59.381Z,21.67
2019-01-03T07:38:12.260Z,16.97
2019-01-03T07:43:41.707Z,18.87
2019-01-03T07:48:56.047Z,18.53
2019-01-03T07:54:25.683Z,13.57
2019-01-03T07:59:45.873Z,19.63
2019-01-03T08:05:00.377Z,18.53
2019-01-03T08:10:13.419Z,12.40
2019-01-03T08:15:33.552Z,15.07
2019-01-03T08:20:50.987Z,16.77
2019-01-03T08:26:23.592Z,13.07
2019-01-03T08:31:36.196Z,11.17
2019-01-03T08:37:05.721Z,15.63
2019-01-03T08:42:23.087Z,11.47
2019-01-03T08:47:43.485Z,11.47
2019-01-03T08:53:00.916Z,12.73
2019-01-03T08:58:30.377Z,15.23
2019-01-03T09:03:44.758Z,12.40
2019-01-03T09:09:14.459Z,10.97
2019-01-03T09:14:31.939Z,11.37
2019-01-03T09:19:52.475Z,12.33
2019-01-03T09:25:21.809Z,10.20
2019-01-03T09:30:34.852Z,8.10
2019-01-03T09:35:58.670Z,12.37
2019-01-03T09:41:11.635Z,11.00
2019-01-03T09:46:07.117Z,8.77
2019-01-03T09:51:02.614Z,11.33
2019-01-03T09:55:58.129Z,9.97
2019-01-03T10:00:53.854Z,6.93
2019-01-03T10:05:49.343Z,7.17
2019-01-03T10:10:44.842Z,7.00
2019-01-03T10:15:40.293Z,7.00
2019-01-03T10:20:35.841Z,12.63
2019-01-03T10:25:31.325Z,10.03
2019-01-03T10:30:26.806Z,10.80
2019-01-03T10:35:22.291Z,8.13
2019-01-03T10:40:17.827Z,8.13
2019-01-03T10:45:13.313Z,8.17
2019-01-03T10:50:08.977Z,6.40
2019-01-03T10:55:05.779Z,7.00
2019-01-03T11:00:01.260Z,7.67
2019-01-03T11:04:56.743Z,5.97
2019-01-03T11:09:52.193Z,6.00
2019-01-03T11:14:47.656Z,7.23
2019-01-03T11:19:43.154Z,7.57
2019-01-03T11:24:38.780Z,5.27
2019-01-03T11:29:34.262Z,6.20
2019-01-03T11:34:29.768Z,11.60
2019-01-03T11:39:25.317Z,7.43
2019-01-03T11:44:20.883Z,10.37
2019-01-03T11:49:16.375Z,11.07
2019-01-03T11:54:11.885Z,7.43
2019-01-03T11:59:07.492Z,7.80
2019-01-03T12:04:02.995Z,6.00
2019-01-03T12:08:58.525Z,9.83
2019-01-03T12:13:54.083Z,7.33
2019-01-03T12:18:49.566Z,11.13
2019-01-03T12:23:45.052Z,6.40
2019-01-03T12:28:40.549Z,6.80
2019-01-03T12:33:36.057Z,10.13
2019-01-03T12:38:31.709Z,9.67
2019-01-03T12:43:28.511Z,10.30
2019-01-03T12:48:24.016Z,8.47
2019-01-03T12:53:19.574Z,9.03
2019-01-03T12:58:15.073Z,7.40
2019-01-03T13:03:10.736Z,9.70
2019-01-03T13:08:09.156Z,9.70
2019-01-03T13:13:04.685Z,11.53
2019-01-03T13:18:00.192Z,4.87
2019-01-03T13:22:59.042Z,9.07
2019-01-03T13:27:54.525Z,9.83
2019-01-03T13:32:50.030Z,5.90
2019-01-03T13:37:45.565Z,10.37
2019-01-03T13:42:41.038Z,6.17
2019-01-03T13:47:36.554Z,7.87
2019-01-03T13:52:32.049Z,5.00
2019-01-03T13:57:29.860Z,9.57
2019-01-03T14:02:25.412Z,5.77
2019-01-03T14:07:20.936Z,6.90
2019-01-03T14:12:18.128Z,8.23
2019-01-03T14:17:13.624Z,8.00
2019-01-03T14:22:09.232Z,7.57
2019-01-03T14:27:04.803Z,7.10
2019-01-03T14:32:00.268Z,9.13
2019-01-03T14:36:55.792Z,8.20
2019-01-03T14:41:51.304Z,7.73
2019-01-03T14:46:46.838Z,10.70
2019-01-03T14:51:42.460Z,5.57
2019-01-03T14:56:37.921Z,9.03
2019-01-03T15:01:33.532Z,6.93
2019-01-03T15:06:29.010Z,10.43
2019-01-03T15:11:24.530Z,8.37
2019-01-03T15:16:20.038Z,7.47
2019-01-03T15:21:15.515Z,6.60
2019-01-03T15:26:10.967Z,8.73
2019-01-03T15:31:06.443Z,8.33
2019-01-03T15:36:01.993Z,9.27
2019-01-03T15:40:57.509Z,9.70
2019-01-03T15:45:52.971Z,8.53
2019-01-03T15:50:48.480Z,8.17
2019-01-03T15:55:44.032Z,11.13
2019-01-03T16:00:39.546Z,7.53
2019-01-03T16:05:35.014Z,8.20
2019-01-03T16:10:30.486Z,6.20
2019-01-03T16:15:26.106Z,3.63
2019-01-03T16:20:21.585Z,10.07
2019-01-03T16:25:17.144Z,7.50
2019-01-03T16:30:12.867Z,9.57
2019-01-03T16:35:08.449Z,6.80
2019-01-03T16:40:04.013Z,10.80
2019-01-03T16:44:59.561Z,9.97
2019-01-03T16:49:56.071Z,7.57
2019-01-03T16:54:51.572Z,7.53
2019-01-03T16:59:47.088Z,5.93
2019-01-03T17:04:42.782Z,8.30
2019-01-03T17:09:38.245Z,7.60
2019-01-03T17:14:33.835Z,6.27
2019-01-03T17:19:29.316Z,6.50
2019-01-03T17:24:24.833Z,6.40
2019-01-03T17:29:20.341Z,7.60
2019-01-03T17:34:15.961Z,10.63
2019-01-03T17:39:11.477Z,7.13
2019-01-03T17:44:07.102Z,7.70
2019-01-03T17:49:02.566Z,7.97
2019-01-03T17:53:59.194Z,7.57
2019-01-03T17:58:54.863Z,7.00
2019-01-03T18:03:51.146Z,10.07
2019-01-03T18:08:46.720Z,8.00
2019-01-03T18:13:42.384Z,7.60
2019-01-03T18:18:37.881Z,10.33
2019-01-03T18:23:33.614Z,9.83
2019-01-03T18:28:29.056Z,11.20
2019-01-03T18:33:26.258Z,12.27
2019-01-03T18:38:21.775Z,8.50
2019-01-03T18:43:18.046Z,9.67
2019-01-03T18:48:14.164Z,7.27
2019-01-03T19:04:33.131Z,7.67
2019-01-03T19:09:28.620Z,7.97
2019-01-03T19:14:24.144Z,8.60
2019-01-03T19:19:19.609Z,4.97
2019-01-03T19:24:17.843Z,7.60
2019-01-03T19:29:13.331Z,7.17
2019-01-03T19:34:08.838Z,8.20
2019-01-03T19:39:04.971Z,5.83
2019-01-03T19:44:00.468Z,11.43
2019-01-03T19:48:55.926Z,9.40
2019-01-03T19:53:51.404Z,8.80
2019-01-03T19:58:46.881Z,9.17
2019-01-03T20:03:42.373Z,8.97
2019-01-03T20:08:37.971Z,8.87
2019-01-03T20:13:33.450Z,9.93
2019-01-03T20:18:29.010Z,8.57
2019-01-03T20:23:24.554Z,8.47
2019-01-03T20:28:20.046Z,9.43
2019-01-03T20:33:15.632Z,11.20
2019-01-03T20:38:11.114Z,11.17
2019-01-03T20:43:06.674Z,11.20
2019-01-03T20:48:02.205Z,8.80
2019-01-03T20:52:57.676Z,10.23
2019-01-03T20:57:53.183Z,11.33
2019-01-03T21:02:48.669Z,9.60
2019-01-03T21:07:44.180Z,11.90
2019-01-03T21:12:39.726Z,11.57
2019-01-03T21:17:35.185Z,16.10
2019-01-03T21:22:30.659Z,10.40
2019-01-03T21:27:26.121Z,11.97
2019-01-03T21:32:21.623Z,10.33
2019-01-03T21:37:17.181Z,10.80
2019-01-03T21:42:12.672Z,9.57
2019-01-03T21:47:08.214Z,13.70
2019-01-03T21:52:03.995Z,11.90
2019-01-03T21:57:00.175Z,10.57
2019-01-03T22:01:56.333Z,11.70
2019-01-03T22:06:52.550Z,12.77
2019-01-03T22:11:48.583Z,12.90
2019-01-03T22:16:44.098Z,13.07
2019-01-03T22:21:40.041Z,11.73
2019-01-03T22:26:35.878Z,8.77
2019-01-03T22:31:31.851Z,13.23
2019-01-03T22:36:28.109Z,14.27
2019-01-03T22:41:23.667Z,12.87
2019-01-03T22:46:20.301Z,15.00
2019-01-03T22:51:20.223Z,13.10
2019-01-03T22:56:14.961Z,16.50
2019-01-03T23:01:11.905Z,16.50
2019-01-03T23:06:08.141Z,20.10
2019-01-03T23:11:03.709Z,14.77
2019-01-03T23:15:59.533Z,13.83
2019-01-03T23:20:55.041Z,15.80
2019-01-03T23:25:50.875Z,15.53
2019-01-03T23:30:46.788Z,15.40
2019-01-03T23:35:42.300Z,19.00
2019-01-03T23:40:37.998Z,18.00
2019-01-03T23:45:33.803Z,17.23
2019-01-03T23:50:32.426Z,16.00
2019-01-03T23:55:28.570Z,15.33
